Orbital elements of RADIO 5
| Launched | 16 December 1981 |
| Flight ended | – |
| Launch site | Plesetsk Missile and Space Complex, Russia |
| Owner | Commonwealth of Independent States (former USSR) |
| NORAD ID | 12999 |
| Date fetched |
Epoch osculation |
Inc. [°] |
Ecc. | RA asc node [hr] |
Arg Peri. [°] |
Mean anom [°] |
Mean motion [rev/day] |
Abs. mag |
| Date fetched |
Epoch osculation |
Inc. [°] |
Ecc. | RA asc node [hr] |
Arg Peri. [°] |
Mean anom [°] |
Mean motion [rev/day] |
Abs. mag |
| 2026 May 06 17:57 | 2026 May 05 10:03:39 | 82.9527 | 0.00157 | 7.2468 | 45.9864 | 123.9902 | 12.05294 | – |
| 2026 May 05 17:57 | 2026 May 05 10:03:39 | 82.9527 | 0.00157 | 7.2468 | 45.9864 | 123.9902 | 12.05294 | – |
| 2026 May 04 17:57 | 2026 Apr 30 12:14:39 | 82.9524 | 0.00158 | 7.4248 | 55.3901 | 123.9902 | 12.05294 | – |
| 2026 May 03 17:57 | 2026 Apr 30 12:14:39 | 82.9524 | 0.00158 | 7.4248 | 55.3901 | 123.9902 | 12.05294 | – |
| 2026 May 02 17:57 | 2026 Apr 30 12:14:39 | 82.9524 | 0.00158 | 7.4248 | 55.3901 | 123.9902 | 12.05294 | – |
| 2026 May 01 17:56 | 2026 Apr 30 12:14:39 | 82.9524 | 0.00158 | 7.4248 | 55.3901 | 123.9902 | 12.05294 | – |
| 2026 Apr 30 17:56 | 2026 Apr 30 12:14:39 | 82.9524 | 0.00158 | 7.4248 | 55.3901 | 123.9902 | 12.05294 | – |
| 2026 Apr 29 17:57 | 2026 Apr 24 12:51:12 | 82.9523 | 0.00159 | 7.6415 | 66.8484 | 123.9902 | 12.05294 | – |
| 2026 Apr 28 17:56 | 2026 Apr 24 12:51:12 | 82.9523 | 0.00159 | 7.6415 | 66.8484 | 123.9902 | 12.05294 | – |
| 2026 Apr 27 17:58 | 2026 Apr 24 12:51:12 | 82.9523 | 0.00159 | 7.6415 | 66.8484 | 123.9902 | 12.05294 | – |
| 2026 Apr 26 17:58 | 2026 Apr 24 12:51:12 | 82.9523 | 0.00159 | 7.6415 | 66.8484 | 123.9902 | 12.05294 | – |
| 2026 Apr 25 17:58 | 2026 Apr 24 12:51:12 | 82.9523 | 0.00159 | 7.6415 | 66.8484 | 123.9902 | 12.05294 | – |
| 2026 Apr 24 17:59 | 2026 Apr 24 12:51:12 | 82.9523 | 0.00159 | 7.6415 | 66.8484 | 123.9902 | 12.05294 | – |
| 2026 Apr 23 17:57 | 2026 Apr 19 06:42:17 | 82.9526 | 0.00159 | 7.8321 | 76.9122 | 123.9902 | 12.05294 | – |
| 2026 Apr 22 17:57 | 2026 Apr 19 06:42:17 | 82.9526 | 0.00159 | 7.8321 | 76.9122 | 123.9902 | 12.05294 | – |
| 2026 Apr 21 17:57 | 2026 Apr 19 06:42:17 | 82.9526 | 0.00159 | 7.8321 | 76.9122 | 123.9902 | 12.05294 | – |
| 2026 Apr 20 17:57 | 2026 Apr 19 06:42:17 | 82.9526 | 0.00159 | 7.8321 | 76.9122 | 123.9902 | 12.05294 | – |
| 2026 Apr 19 17:58 | 2026 Apr 19 06:42:17 | 82.9526 | 0.00159 | 7.8321 | 76.9122 | 123.9902 | 12.05294 | – |
| 2026 Apr 18 17:56 | 2026 Apr 13 07:16:21 | 82.9530 | 0.00159 | 8.0488 | 88.3937 | 123.9902 | 12.05294 | – |
| 2026 Apr 16 17:57 | 2026 Apr 13 07:16:21 | 82.9530 | 0.00159 | 8.0488 | 88.3937 | 123.9902 | 12.05294 | – |
| 2026 Apr 14 17:57 | 2026 Apr 13 07:16:21 | 82.9530 | 0.00159 | 8.0488 | 88.3937 | 123.9902 | 12.05294 | – |
| 2026 Apr 13 17:57 | 2026 Apr 13 07:16:21 | 82.9530 | 0.00159 | 8.0488 | 88.3937 | 123.9902 | 12.05294 | – |
| 2026 Apr 12 17:57 | 2026 Apr 08 14:19:29 | 82.9537 | 0.00159 | 8.2195 | 97.4737 | 123.9902 | 12.05294 | – |
| 2026 Apr 11 17:57 | 2026 Apr 08 14:19:29 | 82.9537 | 0.00159 | 8.2195 | 97.4737 | 123.9902 | 12.05294 | – |
| 2026 Apr 10 17:58 | 2026 Apr 08 14:19:29 | 82.9537 | 0.00159 | 8.2195 | 97.4737 | 123.9902 | 12.05294 | – |
| 2026 Apr 09 18:01 | 2026 Apr 08 14:19:29 | 82.9537 | 0.00159 | 8.2195 | 97.4737 | 123.9902 | 12.05294 | – |